createdAt,value
2019-05-10T00:00:59.755Z,77.39
2019-05-10T00:03:48.282Z,77.90
2019-05-10T00:06:37.327Z,78.28
2019-05-10T00:09:09.949Z,77.49
2019-05-10T00:12:18.486Z,78.12
2019-05-10T00:14:51.803Z,77.84
2019-05-10T00:17:23.994Z,77.90
2019-05-10T00:19:55.235Z,77.73
2019-05-10T00:22:26.777Z,77.68
2019-05-10T00:25:04.340Z,78.52
2019-05-10T00:27:30.897Z,78.50
2019-05-10T00:30:05.830Z,78.77
2019-05-10T00:32:37.015Z,79.00
2019-05-10T00:35:08.353Z,78.53
2019-05-10T00:37:39.592Z,78.66
2019-05-10T00:40:11.082Z,78.52
2019-05-10T00:42:42.251Z,78.05
2019-05-10T00:45:13.561Z,78.12
2019-05-10T00:47:44.703Z,78.27
2019-05-10T00:50:16.317Z,78.05
2019-05-10T00:52:47.419Z,78.65
2019-05-10T00:55:19.526Z,78.59
2019-05-10T00:57:50.847Z,79.77
2019-05-10T01:00:22.110Z,81.13
2019-05-10T01:02:53.328Z,80.85
2019-05-10T01:05:24.522Z,81.59
2019-05-10T01:07:55.796Z,82.12
2019-05-10T01:10:27.041Z,82.29
2019-05-10T01:12:58.282Z,82.42
2019-05-10T01:15:29.522Z,83.00
2019-05-10T01:18:00.747Z,82.73
2019-05-10T01:20:31.969Z,82.93
2019-05-10T01:23:03.215Z,83.67
2019-05-10T01:25:35.787Z,84.15
2019-05-10T01:28:07.345Z,83.82
2019-05-10T01:30:38.539Z,84.19
2019-05-10T01:33:09.742Z,84.34
2019-05-10T01:35:41.019Z,84.14
2019-05-10T01:38:12.244Z,84.23
2019-05-10T01:40:43.504Z,84.81
2019-05-10T01:43:14.706Z,85.02
2019-05-10T01:45:45.865Z,84.60
2019-05-10T01:48:17.058Z,84.26
2019-05-10T01:50:48.296Z,84.36
2019-05-10T01:53:19.526Z,84.87
2019-05-10T01:55:52.542Z,84.83
2019-05-10T01:58:23.657Z,84.66
2019-05-10T02:00:54.909Z,83.64
2019-05-10T02:03:26.149Z,83.67
2019-05-10T02:05:57.301Z,84.01
2019-05-10T02:08:28.517Z,84.28
2019-05-10T02:10:59.749Z,83.65
2019-05-10T02:13:31.016Z,83.27
2019-05-10T02:16:02.285Z,83.50
2019-05-10T02:18:33.492Z,83.89
2019-05-10T02:21:04.749Z,82.89
2019-05-10T02:23:35.983Z,83.10
2019-05-10T02:26:09.780Z,82.90
2019-05-10T02:28:40.093Z,82.75
2019-05-10T02:31:11.237Z,82.15
2019-05-10T02:33:42.486Z,82.28
2019-05-10T02:36:13.747Z,81.86
2019-05-10T02:38:44.893Z,81.69
2019-05-10T02:41:16.249Z,81.24
2019-05-10T02:43:47.477Z,81.72
2019-05-10T02:46:18.740Z,81.60
2019-05-10T02:48:49.945Z,81.33
2019-05-10T02:51:21.156Z,81.48
2019-05-10T02:53:52.474Z,81.69
2019-05-10T02:56:30.187Z,81.34
2019-05-10T02:58:58.782Z,81.28
2019-05-10T03:01:32.286Z,81.32
2019-05-10T03:04:04.721Z,80.73
2019-05-10T03:06:41.735Z,81.07
2019-05-10T03:09:12.989Z,81.79
2019-05-10T03:11:51.044Z,82.19
2019-05-10T03:14:23.917Z,81.76
2019-05-10T03:16:55.066Z,81.82
2019-05-10T03:19:27.949Z,81.94
2019-05-10T03:22:09.790Z,82.12
2019-05-10T03:24:41.037Z,81.94
2019-05-10T03:27:12.253Z,81.53
2019-05-10T03:29:43.507Z,81.88
2019-05-10T03:32:14.923Z,81.61
2019-05-10T03:34:46.181Z,81.84
2019-05-10T03:37:17.589Z,81.64
2019-05-10T03:39:48.909Z,81.72
2019-05-10T03:42:20.292Z,82.54
2019-05-10T03:44:51.534Z,82.01
2019-05-10T03:47:22.664Z,82.42
2019-05-10T03:49:53.961Z,82.56
2019-05-10T03:52:25.176Z,82.90
2019-05-10T03:54:56.366Z,82.89
2019-05-10T03:57:27.636Z,83.11
2019-05-10T03:59:58.862Z,83.07
2019-05-10T04:02:30.110Z,83.34
2019-05-10T04:05:01.393Z,84.28
2019-05-10T04:07:32.606Z,84.68
2019-05-10T04:10:03.889Z,84.23
2019-05-10T04:12:35.207Z,84.76
2019-05-10T04:15:07.994Z,84.92
2019-05-10T04:17:39.172Z,85.10
2019-05-10T04:20:10.994Z,85.03
2019-05-10T04:22:42.206Z,84.83
2019-05-10T04:25:15.394Z,84.80
2019-05-10T04:27:46.598Z,85.14
2019-05-10T04:30:20.273Z,85.24
2019-05-10T04:32:51.610Z,84.94
2019-05-10T04:35:22.910Z,84.96
2019-05-10T04:37:54.115Z,84.93
2019-05-10T04:40:25.372Z,85.18
2019-05-10T04:42:56.767Z,84.98
2019-05-10T04:45:27.988Z,85.21
2019-05-10T04:47:59.262Z,85.10
2019-05-10T04:50:30.496Z,85.45
2019-05-10T04:53:01.760Z,85.54
2019-05-10T04:55:33.010Z,85.34
2019-05-10T04:58:04.257Z,85.25
2019-05-10T05:00:35.494Z,85.26
2019-05-10T05:03:06.774Z,85.34
2019-05-10T05:05:37.950Z,85.36
2019-05-10T05:08:09.084Z,85.73
2019-05-10T05:10:40.354Z,85.60
2019-05-10T05:13:11.616Z,85.92
2019-05-10T05:15:42.852Z,85.91
2019-05-10T05:18:14.067Z,85.85
2019-05-10T05:20:45.447Z,85.62
2019-05-10T05:23:16.679Z,85.82
2019-05-10T05:25:47.883Z,85.71
2019-05-10T05:28:23.127Z,84.92
2019-05-10T05:30:52.592Z,85.05
2019-05-10T05:33:23.845Z,84.76
2019-05-10T05:35:55.049Z,85.16
2019-05-10T05:38:26.288Z,85.17
2019-05-10T05:40:57.491Z,84.04
2019-05-10T05:43:28.755Z,83.30
2019-05-10T05:45:59.970Z,83.42
2019-05-10T05:48:40.055Z,83.98
2019-05-10T05:51:04.183Z,84.14
2019-05-10T05:53:41.551Z,83.70
2019-05-10T05:56:12.525Z,83.40
2019-05-10T05:58:44.778Z,83.18
2019-05-10T06:01:24.952Z,83.77
2019-05-10T06:03:47.100Z,83.62
2019-05-10T06:06:21.740Z,82.65
2019-05-10T06:08:54.428Z,82.39
2019-05-10T06:11:24.115Z,82.44
2019-05-10T06:13:55.323Z,81.83
2019-05-10T06:16:26.601Z,81.38
2019-05-10T06:18:57.855Z,80.64
2019-05-10T06:21:29.126Z,80.43
2019-05-10T06:24:00.304Z,78.92
2019-05-10T06:26:31.493Z,76.85
2019-05-10T06:29:04.481Z,76.19
2019-05-10T06:31:35.683Z,75.69
2019-05-10T06:34:07.032Z,76.55
2019-05-10T06:36:38.299Z,75.11
2019-05-10T06:39:09.833Z,75.22
2019-05-10T06:41:41.085Z,75.57
2019-05-10T06:44:12.456Z,75.67
2019-05-10T06:46:43.629Z,75.57
2019-05-10T06:49:14.787Z,74.79
2019-05-10T06:51:49.261Z,75.93
2019-05-10T06:54:19.054Z,74.42
2019-05-10T06:56:50.290Z,74.50
2019-05-10T06:59:24.936Z,74.79
2019-05-10T07:01:54.301Z,75.34
2019-05-10T07:04:27.306Z,73.66
2019-05-10T07:06:58.472Z,73.74
2019-05-10T07:09:29.726Z,72.06
2019-05-10T07:12:00.918Z,70.68
2019-05-10T07:14:32.168Z,69.18
2019-05-10T07:17:04.476Z,69.74
2019-05-10T07:19:41.603Z,68.90
2019-05-10T07:22:08.713Z,70.46
2019-05-10T07:24:39.976Z,71.99
2019-05-10T07:27:11.159Z,72.33
2019-05-10T07:29:45.982Z,71.46
2019-05-10T07:32:16.345Z,70.49
2019-05-10T07:34:58.289Z,70.70
2019-05-10T07:37:21.529Z,72.00
2019-05-10T07:39:52.794Z,69.20
2019-05-10T07:42:24.016Z,64.07
2019-05-10T07:44:55.220Z,60.90
2019-05-10T07:47:30.469Z,59.18
2019-05-10T07:50:04.004Z,53.55
2019-05-10T07:52:36.199Z,53.23
2019-05-10T07:55:05.867Z,51.85
2019-05-10T07:57:37.061Z,51.63
2019-05-10T08:00:08.545Z,54.77
2019-05-10T08:02:44.531Z,58.61
2019-05-10T08:05:18.286Z,59.71
2019-05-10T08:07:49.520Z,61.49
2019-05-10T08:10:21.655Z,64.66
2019-05-10T08:12:53.164Z,63.85
2019-05-10T08:15:29.326Z,62.75
2019-05-10T08:17:58.561Z,59.82
2019-05-10T08:20:43.707Z,59.45
2019-05-10T08:23:12.905Z,56.70
2019-05-10T08:25:46.768Z,57.16
2019-05-10T08:28:16.223Z,56.00
2019-05-10T08:30:58.100Z,54.79
2019-05-10T08:33:22.889Z,52.38
2019-05-10T08:36:01.090Z,53.81
2019-05-10T08:38:27.286Z,56.82
2019-05-10T08:40:58.550Z,56.61
2019-05-10T08:43:38.772Z,54.67
2019-05-10T08:46:04.372Z,52.79
2019-05-10T08:48:38.005Z,47.89
2019-05-10T08:51:08.650Z,49.00
2019-05-10T08:53:42.181Z,50.34
2019-05-10T08:56:20.627Z,52.83
2019-05-10T08:58:45.668Z,52.02
2019-05-10T09:01:26.557Z,53.66
2019-05-10T09:03:55.059Z,54.79
2019-05-10T09:06:22.646Z,56.19
2019-05-10T09:09:01.618Z,55.34
2019-05-10T09:11:26.869Z,56.03
2019-05-10T09:13:58.114Z,57.07
2019-05-10T09:16:35.042Z,55.61
2019-05-10T09:19:02.701Z,55.93
2019-05-10T09:21:33.919Z,58.42
2019-05-10T09:24:06.645Z,58.71
2019-05-10T09:26:37.917Z,58.73
2019-05-10T09:29:09.188Z,59.71
2019-05-10T09:31:46.054Z,58.76
2019-05-10T09:34:14.915Z,59.40
2019-05-10T09:37:42.307Z,58.45
2019-05-10T09:40:14.039Z,57.19
2019-05-10T09:42:48.844Z,57.72
2019-05-10T09:45:22.224Z,56.21
2019-05-10T09:47:54.328Z,53.85
2019-05-10T09:50:30.481Z,58.25
2019-05-10T09:53:01.142Z,57.41
2019-05-10T09:55:55.381Z,57.29
2019-05-10T09:58:28.536Z,57.81
2019-05-10T10:05:32.239Z,54.59
2019-05-10T10:08:08.500Z,55.87
2019-05-10T10:10:37.217Z,54.24
2019-05-10T10:13:13.538Z,54.24
2019-05-10T10:15:41.366Z,52.80
2019-05-10T10:18:18.198Z,52.52
2019-05-10T10:20:47.906Z,52.64
2019-05-10T10:23:18.554Z,53.41
2019-05-10T10:25:49.798Z,50.90
2019-05-10T10:28:22.551Z,50.34
2019-05-10T10:31:03.437Z,51.67
2019-05-10T10:33:29.053Z,50.62
2019-05-10T10:36:04.848Z,47.41
2019-05-10T10:38:39.738Z,46.63
2019-05-10T10:41:08.084Z,48.48
2019-05-10T10:43:38.280Z,48.75
2019-05-10T10:46:12.450Z,51.12
2019-05-10T10:48:43.693Z,50.14
2019-05-10T10:51:15.375Z,51.40
2019-05-10T10:53:47.089Z,49.90
2019-05-10T10:56:18.410Z,49.36
2019-05-10T10:58:50.179Z,50.75
2019-05-10T11:01:25.341Z,52.21
2019-05-10T11:03:54.446Z,51.15
2019-05-10T11:06:25.604Z,53.08
2019-05-10T11:08:56.846Z,53.44
2019-05-10T11:11:30.753Z,51.56
2019-05-10T11:14:07.283Z,50.04
2019-05-10T11:16:33.829Z,49.93
2019-05-10T11:19:13.251Z,51.06
2019-05-10T11:21:37.989Z,49.88
2019-05-10T11:24:10.575Z,50.39
2019-05-10T11:26:44.781Z,52.28
2019-05-10T11:29:22.975Z,52.54
2019-05-10T11:31:58.751Z,53.24
2019-05-10T11:34:21.671Z,53.08
2019-05-10T11:36:53.156Z,53.96
2019-05-10T11:39:26.913Z,53.93
2019-05-10T11:42:02.415Z,53.38
2019-05-10T11:44:31.702Z,54.48
2019-05-10T11:47:02.999Z,56.75
2019-05-10T11:49:34.264Z,55.20
2019-05-10T11:52:05.558Z,55.08
2019-05-10T11:54:36.799Z,55.42
2019-05-10T11:57:10.969Z,54.42
2019-05-10T11:59:41.569Z,54.46
2019-05-10T12:02:33.896Z,53.76
2019-05-10T12:04:45.796Z,53.50
2019-05-10T12:07:23.899Z,53.91
2019-05-10T12:09:53.320Z,52.43
2019-05-10T12:12:29.707Z,53.89
2019-05-10T12:14:55.576Z,53.71
2019-05-10T12:17:26.821Z,55.08
2019-05-10T12:19:58.044Z,56.17
2019-05-10T12:22:37.897Z,57.95
2019-05-10T12:25:27.392Z,58.30
2019-05-10T12:27:45.278Z,59.65
2019-05-10T12:30:08.522Z,60.23
2019-05-10T12:32:55.113Z,61.27
2019-05-10T12:35:12.881Z,61.27
2019-05-10T12:37:48.785Z,58.25
2019-05-10T12:40:17.889Z,58.26
2019-05-10T12:42:49.022Z,56.39
2019-05-10T12:45:22.864Z,55.78
2019-05-10T12:47:53.357Z,54.55
2019-05-10T12:50:24.825Z,54.22
2019-05-10T12:53:03.261Z,55.30
2019-05-10T12:55:28.967Z,53.94
2019-05-10T12:58:00.152Z,55.09
2019-05-10T13:00:31.471Z,56.02
2019-05-10T13:03:12.183Z,56.62
2019-05-10T13:05:50.225Z,56.59
2019-05-10T13:08:08.738Z,59.09
2019-05-10T13:10:43.346Z,60.25
2019-05-10T13:13:17.595Z,62.42
2019-05-10T13:15:46.156Z,63.11
2019-05-10T13:18:17.378Z,61.44
2019-05-10T13:20:48.540Z,61.95
2019-05-10T13:23:19.887Z,61.08
2019-05-10T13:25:51.183Z,61.12
2019-05-10T13:28:22.304Z,61.14
2019-05-10T13:30:53.612Z,58.24
2019-05-10T13:33:29.048Z,57.35
2019-05-10T13:35:58.521Z,58.55
2019-05-10T13:38:30.368Z,58.86
2019-05-10T13:41:03.581Z,60.13
2019-05-10T13:43:34.799Z,58.14
2019-05-10T13:46:06.040Z,56.66
2019-05-10T13:48:37.321Z,56.54
2019-05-10T13:51:08.531Z,56.71
2019-05-10T13:53:39.836Z,56.31
2019-05-10T13:56:11.026Z,56.91
2019-05-10T13:58:42.267Z,56.07
2019-05-10T14:01:14.847Z,55.38
2019-05-10T14:03:53.785Z,52.53
2019-05-10T14:06:19.334Z,53.96
2019-05-10T14:08:50.595Z,54.81
2019-05-10T14:11:21.821Z,55.10
2019-05-10T14:13:53.243Z,54.60
2019-05-10T14:16:24.469Z,54.29
2019-05-10T14:18:55.664Z,53.71
2019-05-10T14:21:26.918Z,54.30
2019-05-10T14:23:58.148Z,51.56
2019-05-10T14:26:29.358Z,51.48
2019-05-10T14:29:00.653Z,52.21
2019-05-10T14:31:31.893Z,52.76
2019-05-10T14:34:18.516Z,54.35
2019-05-10T14:36:40.878Z,54.68
2019-05-10T14:39:09.733Z,57.43
2019-05-10T14:41:45.269Z,67.88
2019-05-10T14:44:13.730Z,74.01
2019-05-10T14:46:44.926Z,77.51
2019-05-10T14:49:16.079Z,80.24
2019-05-10T14:51:58.287Z,81.08
2019-05-10T14:54:20.927Z,81.59
2019-05-10T14:56:54.051Z,82.08
2019-05-10T14:59:25.123Z,84.04
2019-05-10T15:01:56.324Z,84.15
2019-05-10T15:04:44.278Z,83.83
2019-05-10T15:07:00.955Z,84.53
2019-05-10T15:09:32.267Z,83.21
2019-05-10T15:12:03.591Z,83.80
2019-05-10T15:14:34.889Z,83.53
2019-05-10T15:17:06.167Z,82.17
2019-05-10T15:19:37.417Z,82.78
2019-05-10T15:22:08.692Z,82.69
2019-05-10T15:24:42.102Z,83.64
2019-05-10T15:27:16.282Z,73.90
2019-05-10T15:29:46.347Z,71.63
2019-05-10T15:32:17.678Z,70.21
2019-05-10T15:35:05.709Z,67.08
2019-05-10T15:37:23.235Z,70.67
2019-05-10T15:39:54.507Z,64.16
2019-05-10T15:42:30.408Z,60.27
2019-05-10T15:44:58.681Z,66.40
2019-05-10T15:47:29.944Z,64.31
2019-05-10T15:50:01.617Z,61.96
2019-05-10T15:52:33.092Z,64.81
2019-05-10T15:55:04.351Z,62.59
2019-05-10T15:57:35.689Z,61.00
2019-05-10T16:00:09.156Z,65.10
2019-05-10T16:02:40.345Z,68.59
2019-05-10T16:05:25.616Z,72.76
2019-05-10T16:07:46.371Z,70.28
2019-05-10T16:10:18.067Z,63.06
2019-05-10T16:12:49.311Z,61.64
2019-05-10T16:15:21.355Z,60.23
2019-05-10T16:17:53.916Z,59.95
2019-05-10T16:20:25.564Z,62.48
2019-05-10T16:22:56.848Z,65.05
2019-05-10T16:25:32.913Z,66.82
2019-05-10T16:28:01.060Z,69.23
2019-05-10T16:30:32.160Z,72.06
2019-05-10T16:33:09.707Z,75.79
2019-05-10T16:35:39.346Z,76.75
2019-05-10T16:38:10.579Z,77.22
2019-05-10T16:40:44.436Z,77.97
2019-05-10T16:43:19.594Z,80.79
2019-05-10T16:45:47.718Z,79.66
2019-05-10T16:48:18.974Z,80.87
2019-05-10T16:50:50.305Z,81.84
2019-05-10T16:53:21.677Z,80.91
2019-05-10T16:55:52.967Z,77.67
2019-05-10T16:58:24.219Z,78.75
2019-05-10T17:00:55.484Z,79.33
2019-05-10T17:03:28.691Z,79.16
2019-05-10T17:06:04.171Z,79.57
2019-05-10T17:08:36.693Z,80.82
2019-05-10T17:11:10.053Z,81.98
2019-05-10T17:13:41.555Z,83.81
2019-05-10T17:16:17.215Z,83.52
2019-05-10T17:18:49.740Z,80.41
2019-05-10T17:21:18.020Z,81.45
2019-05-10T17:23:49.167Z,81.07
2019-05-10T17:26:20.430Z,83.11
2019-05-10T17:28:51.559Z,83.54
2019-05-10T17:31:22.826Z,83.59
2019-05-10T17:33:54.070Z,78.23
2019-05-10T17:36:25.591Z,81.10
2019-05-10T17:38:56.750Z,84.93
2019-05-10T17:41:27.979Z,84.72
2019-05-10T17:43:59.116Z,83.88
2019-05-10T17:46:30.369Z,84.33
2019-05-10T17:49:04.846Z,84.51
2019-05-10T17:51:36.262Z,84.97
2019-05-10T17:54:07.511Z,85.97
2019-05-10T17:56:45.118Z,85.36
2019-05-10T17:59:16.449Z,85.38
2019-05-10T18:01:47.725Z,84.31
2019-05-10T18:04:18.988Z,84.40
2019-05-10T18:06:50.281Z,84.89
2019-05-10T18:09:24.395Z,86.02
2019-05-10T18:11:55.660Z,84.01
2019-05-10T18:14:29.521Z,83.64
2019-05-10T18:16:59.775Z,83.22
2019-05-10T18:19:31.075Z,83.28
2019-05-10T18:22:06.233Z,83.77
2019-05-10T18:24:37.208Z,83.51
2019-05-10T18:27:08.087Z,83.59
2019-05-10T18:29:39.254Z,84.11
2019-05-10T18:32:11.131Z,84.30
2019-05-10T18:34:42.631Z,85.54
2019-05-10T18:37:15.754Z,85.84
2019-05-10T18:39:47.496Z,86.52
2019-05-10T18:42:25.542Z,87.13
2019-05-10T18:44:54.176Z,87.54
2019-05-10T18:47:25.657Z,87.71
2019-05-10T18:49:56.850Z,87.80
2019-05-10T18:52:28.125Z,87.64
2019-05-10T18:55:00.869Z,87.75
2019-05-10T18:57:31.967Z,87.78
2019-05-10T19:00:03.566Z,87.92
2019-05-10T19:02:35.160Z,88.06
2019-05-10T19:05:07.603Z,88.07
2019-05-10T19:07:38.818Z,88.32
2019-05-10T19:10:13.566Z,88.63
2019-05-10T19:12:45.057Z,88.83
2019-05-10T19:15:16.925Z,89.21
2019-05-10T19:17:48.526Z,89.45
2019-05-10T19:20:19.870Z,89.72
2019-05-10T19:22:51.157Z,89.90
2019-05-10T19:25:22.442Z,90.16
2019-05-10T19:27:53.622Z,90.19
2019-05-10T19:30:24.929Z,90.32
2019-05-10T19:32:57.941Z,90.12
2019-05-10T19:35:29.636Z,90.22
2019-05-10T19:38:02.077Z,90.59
2019-05-10T19:40:33.285Z,90.77
2019-05-10T19:43:04.520Z,90.73
2019-05-10T19:45:36.097Z,90.91
2019-05-10T19:48:07.327Z,91.20
2019-05-10T19:50:38.608Z,91.33
2019-05-10T19:53:09.800Z,91.48
2019-05-10T19:55:41.143Z,91.65
2019-05-10T19:58:12.356Z,91.61
2019-05-10T20:00:43.686Z,91.75
2019-05-10T20:03:15.352Z,92.05
2019-05-10T20:05:47.117Z,92.14
2019-05-10T20:08:19.988Z,92.01
2019-05-10T20:10:51.714Z,92.07
2019-05-10T20:13:22.933Z,92.17
2019-05-10T20:15:54.137Z,92.34
2019-05-10T20:18:25.417Z,92.58
2019-05-10T20:20:56.745Z,92.98
2019-05-10T20:23:29.325Z,93.13
2019-05-10T20:26:00.913Z,93.08
2019-05-10T20:28:32.128Z,92.98
2019-05-10T20:31:03.516Z,92.79
2019-05-10T20:33:34.762Z,92.63
2019-05-10T20:36:06.025Z,92.56
2019-05-10T20:38:37.238Z,92.56
2019-05-10T20:41:08.560Z,92.63
2019-05-10T20:43:39.771Z,92.77
2019-05-10T20:46:14.202Z,92.81
2019-05-10T20:48:45.423Z,92.63
2019-05-10T20:51:16.706Z,92.61
2019-05-10T20:53:48.293Z,92.95
2019-05-10T20:56:19.628Z,93.14
2019-05-10T20:58:50.849Z,93.21
2019-05-10T21:01:22.048Z,93.20
2019-05-10T21:03:53.277Z,93.35
2019-05-10T21:06:24.398Z,93.39
2019-05-10T21:08:55.556Z,93.36
2019-05-10T21:11:26.790Z,93.41
2019-05-10T21:13:58.122Z,93.54
2019-05-10T21:16:29.381Z,93.69
2019-05-10T21:19:00.652Z,93.82
2019-05-10T21:21:31.815Z,94.00
2019-05-10T21:24:02.987Z,94.06
2019-05-10T21:26:34.247Z,94.12
2019-05-10T21:29:05.541Z,94.21
2019-05-10T21:31:36.774Z,94.18
2019-05-10T21:34:10.082Z,94.24
2019-05-10T21:36:40.942Z,94.13
2019-05-10T21:39:12.153Z,94.05
2019-05-10T21:41:43.405Z,93.81
2019-05-10T21:44:14.604Z,93.71
2019-05-10T21:46:45.822Z,92.90
2019-05-10T21:49:17.097Z,91.90
2019-05-10T21:51:48.230Z,91.10
2019-05-10T21:54:19.460Z,90.98
2019-05-10T21:56:50.676Z,90.96
2019-05-10T21:59:21.955Z,91.43
2019-05-10T22:01:53.335Z,91.46
2019-05-10T22:04:24.527Z,91.56
2019-05-10T22:06:55.721Z,91.92
2019-05-10T22:09:27.029Z,92.28
2019-05-10T22:11:59.685Z,91.90
2019-05-10T22:14:31.162Z,91.12
2019-05-10T22:17:02.373Z,90.78
2019-05-10T22:19:33.616Z,91.20
2019-05-10T22:22:04.864Z,91.17
2019-05-10T22:24:35.924Z,90.30
2019-05-10T22:27:07.157Z,89.73
2019-05-10T22:29:38.439Z,89.68
2019-05-10T22:32:09.818Z,90.13
2019-05-10T22:34:41.107Z,90.53
2019-05-10T22:37:12.375Z,90.97
2019-05-10T22:39:43.516Z,90.62
2019-05-10T22:42:14.757Z,89.96
2019-05-10T22:44:45.983Z,89.45
2019-05-10T22:47:17.258Z,89.24
2019-05-10T22:49:48.414Z,89.61
2019-05-10T22:52:19.676Z,90.01
2019-05-10T22:54:50.923Z,90.59
2019-05-10T22:57:22.217Z,90.53
2019-05-10T22:59:53.472Z,89.71
2019-05-10T23:02:24.677Z,89.08
2019-05-10T23:04:55.894Z,88.38
2019-05-10T23:07:26.938Z,88.81
2019-05-10T23:09:58.009Z,89.21
2019-05-10T23:12:29.177Z,89.99
2019-05-10T23:15:00.361Z,90.12
2019-05-10T23:17:31.513Z,90.36
2019-05-10T23:20:02.807Z,90.67
2019-05-10T23:22:34.037Z,90.76
2019-05-10T23:25:05.350Z,90.98
2019-05-10T23:27:36.583Z,91.14
2019-05-10T23:30:08.237Z,91.12
2019-05-10T23:32:39.534Z,91.16
2019-05-10T23:35:11.080Z,91.26
2019-05-10T23:37:42.326Z,91.48
2019-05-10T23:40:13.757Z,91.77
2019-05-10T23:42:45.014Z,92.10
2019-05-10T23:45:16.540Z,92.32
2019-05-10T23:47:47.698Z,92.37
2019-05-10T23:50:18.937Z,92.42
2019-05-10T23:52:50.216Z,92.58
2019-05-10T23:55:21.331Z,92.75
2019-05-10T23:57:52.568Z,92.89
